Terminal Aerodrome Forecast
Issued by NWS Spokane, WA

Home | Current Version | Previous Version | Text Only | Print | Product List | Glossary On
Versions: 1 2 3 4 5 6 7 8 9 10 11 12 13 14 15 16 17 18 19 20 21 22 23 24 25 26 27 28 29 30 31 32
237
FTUS46 KOTX 200716 AAA
TAFEAT
TAF AMD
KEAT 200716Z 2007/2106 VRB05KT 5SM -RA BR OVC050
     FM201100 VRB05KT 6SM -RA BR BKN020 OVC050
     FM202000 30011KT P6SM FEW060 SCT100
     FM210100 30007KT P6SM FEW120 BKN200=

USA.gov is the U.S. government's official web portal to all federal, state and local government web resources and services.